createdAt,value
2023-02-06T00:00:48.450Z,102329.56
2023-02-06T00:03:16.128Z,102336.56
2023-02-06T00:05:44.270Z,102313.19
2023-02-06T00:08:12.059Z,102335.38
2023-02-06T00:10:39.790Z,102326.06
2023-02-06T00:13:07.694Z,102320.84
2023-02-06T00:15:52.765Z,102302.94
2023-02-06T00:18:21.038Z,102299.66
2023-02-06T00:20:48.756Z,102292.53
2023-02-06T00:23:19.280Z,102255.88
2023-02-06T00:25:53.516Z,102266.28
2023-02-06T00:28:21.226Z,102271.94
2023-02-06T00:30:50.531Z,102285.91
2023-02-06T00:33:19.858Z,102302.94
2023-02-06T00:35:48.854Z,102288.34
2023-02-06T00:38:16.553Z,102296.91
2023-02-06T00:40:44.305Z,102298.47
2023-02-06T00:43:11.982Z,102293.88
2023-02-06T00:45:39.776Z,102281.25
2023-02-06T00:48:10.154Z,102286.38
2023-02-06T00:50:37.925Z,102289.44
2023-02-06T00:53:05.723Z,102303.25
2023-02-06T00:55:33.735Z,102290.25
2023-02-06T00:58:01.538Z,102283.25
2023-02-06T01:00:29.259Z,102263.69
2023-02-06T01:02:59.065Z,102282.88
2023-02-06T01:05:28.326Z,102280.38
2023-02-06T01:07:56.058Z,102279.16
2023-02-06T01:10:23.737Z,102285.47
2023-02-06T01:12:51.621Z,102287.97
2023-02-06T01:15:19.411Z,102300.03
2023-02-06T01:17:47.211Z,102298.31
2023-02-06T01:20:15.013Z,102298.91
2023-02-06T01:22:44.078Z,102296.78
2023-02-06T01:25:12.119Z,102293.28
2023-02-06T01:27:39.914Z,102304.59
2023-02-06T01:30:09.706Z,102291.09
2023-02-06T01:32:38.065Z,102270.22
2023-02-06T01:35:06.766Z,102305.06
2023-02-06T01:37:34.485Z,102305.78
2023-02-06T01:40:03.682Z,102289.47
2023-02-06T01:42:31.538Z,102304.25
2023-02-06T01:45:32.894Z,102302.22
2023-02-06T01:48:02.312Z,102272.25
2023-02-06T01:50:29.969Z,102291.91
2023-02-06T01:52:57.750Z,102301.69
2023-02-06T01:55:26.961Z,102302.47
2023-02-06T01:57:54.772Z,102302.47
2023-02-06T02:03:01.466Z,102251.13
2023-02-06T02:05:29.650Z,102296.78
2023-02-06T02:08:01.263Z,102174.69
2023-02-06T02:10:31.539Z,102253.59
2023-02-06T02:12:59.514Z,102265.34
2023-02-06T02:15:34.242Z,102232.41
2023-02-06T02:18:04.757Z,102285.34
2023-02-06T02:20:58.531Z,102267.81
2023-02-06T02:23:35.143Z,102196.09
2023-02-06T02:26:30.766Z,102002.06
2023-02-06T02:29:41.766Z,102185.31
2023-02-06T02:32:27.667Z,102298.09
2023-02-06T02:35:46.235Z,102213.38
2023-02-06T02:38:19.880Z,102279.41
2023-02-06T02:40:50.292Z,102250.63
2023-02-06T02:43:22.598Z,102050.41
2023-02-06T02:45:52.875Z,102291.06
2023-02-06T02:48:24.377Z,102248.69
2023-02-06T02:50:53.959Z,102291.53
2023-02-06T02:53:21.817Z,102167.84
2023-02-06T02:55:49.663Z,102285.41
2023-02-06T02:58:19.569Z,102124.84
2023-02-06T03:00:49.607Z,102174.34
2023-02-06T03:03:18.702Z,102235.91
2023-02-06T03:06:02.742Z,102243.94
2023-02-06T03:08:35.561Z,102285.75
2023-02-06T03:11:06.695Z,102253.69
2023-02-06T03:13:37.155Z,102166.84
2023-02-06T03:16:07.940Z,102204.13
2023-02-06T03:18:40.326Z,102242.34
2023-02-06T03:21:10.501Z,102298.00
2023-02-06T03:23:40.076Z,102108.84
2023-02-06T03:26:09.610Z,102180.34
2023-02-06T03:28:40.136Z,102296.00
2023-02-06T03:31:10.139Z,102292.44
2023-02-06T03:33:41.242Z,102278.84
2023-02-06T03:36:17.027Z,102283.50
2023-02-06T03:38:45.473Z,102284.50
2023-02-06T03:41:13.685Z,102221.00
2023-02-06T03:43:42.106Z,102287.09
2023-02-06T03:46:12.552Z,101929.28
2023-02-06T03:48:41.965Z,102168.19
2023-02-06T03:51:13.082Z,102291.38
2023-02-06T03:53:41.208Z,102282.13
2023-02-06T03:56:10.860Z,102257.59
2023-02-06T03:58:39.746Z,102121.84
2023-02-06T04:01:07.631Z,102272.25
2023-02-06T04:03:35.556Z,102326.75
2023-02-06T04:06:03.919Z,102278.88
2023-02-06T04:08:32.990Z,102397.63
2023-02-06T04:11:00.932Z,102199.03
2023-02-06T04:13:28.745Z,102200.97
2023-02-06T04:15:57.655Z,102235.22
2023-02-06T04:18:25.678Z,102246.66
2023-02-06T04:20:53.473Z,102320.19
2023-02-06T04:23:21.527Z,102265.91
2023-02-06T04:25:50.739Z,101939.91
2023-02-06T04:28:18.649Z,102147.56
2023-02-06T04:30:46.632Z,102207.22
2023-02-06T04:33:14.544Z,102281.81
2023-02-06T04:35:42.346Z,102274.34
2023-02-06T04:38:10.197Z,102165.84
2023-02-06T04:40:38.090Z,102158.19
2023-02-06T04:43:07.302Z,102302.00
2023-02-06T04:45:35.811Z,102306.13
2023-02-06T04:48:03.879Z,102295.72
2023-02-06T04:50:34.513Z,102212.28
2023-02-06T04:53:02.663Z,102261.47
2023-02-06T04:55:30.775Z,102306.44
2023-02-06T04:57:59.795Z,102357.22
2023-02-06T05:00:29.079Z,102304.97
2023-02-06T05:02:57.007Z,102301.09
2023-02-06T05:05:24.807Z,102301.84
2023-02-06T05:07:52.994Z,102310.28
2023-02-06T05:10:21.053Z,102281.38
2023-02-06T05:12:50.829Z,102159.81
2023-02-06T05:15:19.030Z,102238.53
2023-02-06T05:17:48.150Z,102283.94
2023-02-06T05:20:15.975Z,102280.47
2023-02-06T05:22:44.052Z,102335.31
2023-02-06T05:25:12.031Z,102212.84
2023-02-06T05:27:45.832Z,102201.63
2023-02-06T05:30:14.692Z,102275.69
2023-02-06T05:32:42.640Z,102233.78
2023-02-06T05:35:11.795Z,102187.75
2023-02-06T05:37:39.721Z,102280.28
2023-02-06T05:40:08.187Z,102104.00
2023-02-06T05:42:36.536Z,102045.28
2023-02-06T05:45:05.297Z,102410.59
2023-02-06T05:47:33.117Z,102308.88
2023-02-06T05:50:01.941Z,102182.81
2023-02-06T05:52:31.222Z,102266.50
2023-02-06T05:55:00.347Z,102068.94
2023-02-06T05:57:28.276Z,102189.22
2023-02-06T05:59:56.432Z,102264.63
2023-02-06T06:02:24.240Z,102218.53
2023-02-06T06:04:52.417Z,102180.59
2023-02-06T06:07:20.217Z,102220.31
2023-02-06T06:09:49.547Z,102050.00
2023-02-06T06:12:17.859Z,102255.03
2023-02-06T06:14:45.644Z,102279.81
2023-02-06T06:17:15.878Z,102261.38
2023-02-06T06:19:43.755Z,102095.84
2023-02-06T06:22:12.044Z,102135.31
2023-02-06T06:24:40.265Z,102289.00
2023-02-06T06:27:10.758Z,102219.47
2023-02-06T06:29:38.694Z,102139.44
2023-02-06T06:32:06.786Z,102279.31
2023-02-06T06:34:34.659Z,102030.56
2023-02-06T06:37:02.653Z,102307.34
2023-02-06T06:39:30.588Z,101765.44
2023-02-06T06:41:58.459Z,102160.16
2023-02-06T06:44:27.634Z,102253.91
2023-02-06T06:46:56.648Z,102159.50
2023-02-06T06:49:24.679Z,102029.59
2023-02-06T06:51:52.762Z,102174.03
2023-02-06T06:54:21.587Z,102243.25
2023-02-06T06:56:49.828Z,102256.81
2023-02-06T06:59:17.742Z,102144.56
2023-02-06T07:01:48.976Z,102131.53
2023-02-06T07:04:19.063Z,102243.31
2023-02-06T07:06:46.951Z,102251.09
2023-02-06T07:09:14.940Z,102018.19
2023-02-06T07:11:43.059Z,101956.63
2023-02-06T07:14:11.192Z,102029.97
2023-02-06T07:16:39.336Z,102263.31
2023-02-06T07:19:09.948Z,102188.06
2023-02-06T07:21:38.014Z,102207.94
2023-02-06T07:24:06.392Z,101977.59
2023-02-06T07:26:34.182Z,102264.44
2023-02-06T07:29:02.384Z,102252.97
2023-02-06T07:31:30.232Z,102244.41
2023-02-06T07:33:58.800Z,102349.16
2023-02-06T07:36:28.512Z,102285.72
2023-02-06T07:38:56.444Z,102197.53
2023-02-06T07:41:28.108Z,102010.69
2023-02-06T07:43:56.411Z,102234.91
2023-02-06T07:46:24.625Z,102285.38
2023-02-06T07:48:52.447Z,102068.34
2023-02-06T07:51:20.661Z,102173.19
2023-02-06T07:53:52.456Z,102212.38
2023-02-06T07:56:21.049Z,102151.72
2023-02-06T07:58:51.660Z,102212.69
2023-02-06T08:03:47.089Z,102241.03
2023-02-06T08:06:16.206Z,102248.88
2023-02-06T08:08:43.998Z,102248.28
2023-02-06T08:11:14.904Z,102251.53
2023-02-06T08:13:42.862Z,102249.03
2023-02-06T08:16:12.402Z,102240.97
2023-02-06T08:18:40.187Z,102242.13
2023-02-06T08:21:08.986Z,102250.97
2023-02-06T08:23:36.651Z,102259.75
2023-02-06T08:26:04.814Z,102259.63
2023-02-06T08:28:35.173Z,102266.31
2023-02-06T08:31:04.388Z,102255.06
2023-02-06T08:33:33.546Z,102243.59
2023-02-06T08:36:02.871Z,102248.88
2023-02-06T08:38:30.695Z,102240.22
2023-02-06T08:40:58.651Z,102248.56
2023-02-06T08:43:26.527Z,102248.84
2023-02-06T08:45:57.493Z,102261.06
2023-02-06T08:48:25.276Z,102258.72
2023-02-06T08:51:02.644Z,102259.16
2023-02-06T08:53:30.490Z,102263.06
2023-02-06T08:56:01.113Z,102252.72
2023-02-06T08:58:28.838Z,102255.91
2023-02-06T09:00:59.640Z,102254.47
2023-02-06T09:03:27.410Z,102241.53
2023-02-06T09:06:09.617Z,102257.63
2023-02-06T09:08:37.795Z,102260.81
2023-02-06T09:11:09.022Z,102256.78
2023-02-06T09:13:36.902Z,102275.53
2023-02-06T09:16:07.070Z,102272.50
2023-02-06T09:18:34.992Z,102261.53
2023-02-06T09:21:07.426Z,102273.44
2023-02-06T09:23:35.850Z,102254.63
2023-02-06T09:26:03.585Z,102265.78
2023-02-06T09:28:31.400Z,102263.06
2023-02-06T09:30:59.241Z,102262.25
2023-02-06T09:33:28.439Z,102258.41
2023-02-06T09:36:03.529Z,102259.47
2023-02-06T09:38:31.205Z,102267.16
2023-02-06T09:41:03.866Z,102264.56
2023-02-06T09:43:31.782Z,102259.56
2023-02-06T09:46:01.534Z,102253.50
2023-02-06T09:48:32.127Z,102270.31
2023-02-06T09:51:05.093Z,102271.47
2023-02-06T09:53:37.710Z,102270.59
2023-02-06T09:56:13.299Z,102271.00
2023-02-06T09:58:43.433Z,102273.16
2023-02-06T10:01:14.046Z,102279.00
2023-02-06T10:03:58.693Z,102263.88
2023-02-06T10:06:27.776Z,102269.44
2023-02-06T10:09:00.810Z,102263.78
2023-02-06T10:11:40.201Z,102235.13
2023-02-06T10:14:11.919Z,102256.53
2023-02-06T10:16:42.103Z,102261.38
2023-02-06T10:19:16.297Z,102255.91
2023-02-06T10:21:47.136Z,102245.88
2023-02-06T10:24:17.500Z,102259.03
2023-02-06T10:26:45.435Z,102254.50
2023-02-06T10:29:23.619Z,102255.38
2023-02-06T10:31:56.527Z,102243.94
2023-02-06T10:34:36.893Z,102244.88
2023-02-06T10:37:23.526Z,102216.63
2023-02-06T10:40:09.918Z,102229.78
2023-02-06T10:42:44.543Z,102237.88
2023-02-06T10:45:20.229Z,102221.06
2023-02-06T10:47:50.927Z,102220.72
2023-02-06T10:50:23.902Z,102219.91
2023-02-06T10:52:51.882Z,102214.63
2023-02-06T10:55:23.912Z,102176.47
2023-02-06T10:57:54.586Z,102204.38
2023-02-06T11:00:24.660Z,102195.41
2023-02-06T11:03:06.621Z,102190.63
2023-02-06T11:05:38.346Z,102194.19
2023-02-06T11:08:12.038Z,102187.28
2023-02-06T11:10:39.981Z,102205.34
2023-02-06T11:13:13.884Z,102207.06
2023-02-06T11:15:45.331Z,102204.41
2023-02-06T11:18:14.260Z,102203.84
2023-02-06T11:20:44.572Z,102193.59
2023-02-06T11:23:17.361Z,102185.28
2023-02-06T11:25:45.296Z,102174.28
2023-02-06T11:28:14.612Z,102169.47
2023-02-06T11:30:43.990Z,102178.13
2023-02-06T11:33:20.739Z,102178.84
2023-02-06T11:35:52.414Z,102163.44
2023-02-06T11:38:21.716Z,102161.94
2023-02-06T11:40:55.843Z,102169.09
2023-02-06T11:43:24.377Z,102171.47
2023-02-06T11:45:53.847Z,102173.78
2023-02-06T11:48:35.953Z,102156.34
2023-02-06T11:51:05.458Z,102161.63
2023-02-06T11:53:33.375Z,102160.22
2023-02-06T11:56:06.719Z,102137.13
2023-02-06T11:58:34.475Z,102135.72
2023-02-06T12:01:05.221Z,102136.06
2023-02-06T12:03:35.862Z,102138.59
2023-02-06T12:06:09.943Z,102147.72
2023-02-06T12:08:42.157Z,102139.81
2023-02-06T12:11:14.377Z,102151.13
2023-02-06T12:13:44.968Z,102158.81
2023-02-06T12:16:14.235Z,102166.38
2023-02-06T12:18:44.310Z,102142.13
2023-02-06T12:21:15.170Z,102150.31
2023-02-06T12:23:46.360Z,102155.84
2023-02-06T12:26:17.746Z,102160.66
2023-02-06T12:28:51.260Z,102152.28
2023-02-06T12:31:20.900Z,102148.25
2023-02-06T12:33:53.440Z,102156.63
2023-02-06T12:36:25.652Z,102151.81
2023-02-06T12:38:55.361Z,102147.19
2023-02-06T12:41:40.332Z,102147.97
2023-02-06T12:44:14.359Z,102142.41
2023-02-06T12:46:42.304Z,102133.06
2023-02-06T12:49:13.760Z,102107.66
2023-02-06T12:51:47.350Z,102117.00
2023-02-06T12:54:17.118Z,102131.25
2023-02-06T12:56:46.710Z,102126.66
2023-02-06T12:59:31.620Z,102144.91
2023-02-06T13:02:01.317Z,102134.28
2023-02-06T13:04:30.969Z,102135.78
2023-02-06T13:07:04.284Z,102142.28
2023-02-06T13:09:33.875Z,102126.41
2023-02-06T13:12:08.694Z,102131.53
2023-02-06T13:14:37.828Z,102116.53
2023-02-06T13:17:10.197Z,102124.44
2023-02-06T13:20:04.258Z,102121.44
2023-02-06T13:22:44.823Z,102117.81
2023-02-06T13:25:46.181Z,102117.69
2023-02-06T13:28:56.111Z,102110.63
2023-02-06T13:31:29.158Z,102111.47
2023-02-06T13:33:59.123Z,102093.72
2023-02-06T13:36:42.961Z,102056.53
2023-02-06T13:39:17.051Z,102113.44
2023-02-06T13:41:44.966Z,102076.03
2023-02-06T13:44:16.881Z,102114.69
2023-02-06T13:47:08.519Z,102107.69
2023-02-06T13:49:59.320Z,102106.50
2023-02-06T13:52:29.678Z,102110.56
2023-02-06T13:55:06.153Z,102108.53
2023-02-06T13:57:41.307Z,102098.00
2023-02-06T14:00:12.241Z,102104.94
2023-02-06T14:02:40.811Z,102101.97
2023-02-06T14:05:11.784Z,102076.09
2023-02-06T14:07:50.307Z,102087.03
2023-02-06T14:10:53.287Z,102098.97
2023-02-06T14:13:30.319Z,102105.88
2023-02-06T14:16:02.970Z,102109.38
2023-02-06T14:18:41.493Z,102024.72
2023-02-06T14:21:16.156Z,102060.94
2023-02-06T14:23:56.884Z,102096.66
2023-02-06T14:26:32.454Z,102101.78
2023-02-06T14:29:03.562Z,102106.09
2023-02-06T14:31:44.972Z,102106.66
2023-02-06T14:34:24.473Z,102065.53
2023-02-06T14:37:14.263Z,102109.59
2023-02-06T14:39:44.492Z,102103.31
2023-02-06T14:42:18.534Z,102111.09
2023-02-06T14:44:50.577Z,102115.13
2023-02-06T14:47:19.617Z,102111.34
2023-02-06T14:49:47.426Z,102118.16
2023-02-06T14:52:18.798Z,102080.78
2023-02-06T14:54:46.743Z,102111.03
2023-02-06T14:57:20.795Z,101961.75
2023-02-06T14:59:53.779Z,102106.66
2023-02-06T15:02:25.797Z,102119.72
2023-02-06T15:04:53.986Z,102119.56
2023-02-06T15:07:24.208Z,102122.16
2023-02-06T15:10:07.019Z,102114.09
2023-02-06T15:12:36.432Z,102127.09
2023-02-06T15:15:16.411Z,102119.78
2023-02-06T15:17:44.413Z,102104.28
2023-02-06T15:20:30.891Z,102123.88
2023-02-06T15:23:11.681Z,102120.91
2023-02-06T15:25:50.791Z,102098.44
2023-02-06T15:28:22.454Z,102123.06
2023-02-06T15:30:54.254Z,102109.84
2023-02-06T15:33:23.465Z,102103.50
2023-02-06T15:35:53.119Z,102099.06
2023-02-06T15:38:21.963Z,102100.75
2023-02-06T15:40:51.558Z,102084.63
2023-02-06T15:43:22.118Z,102102.50
2023-02-06T15:45:50.950Z,102085.91
2023-02-06T15:48:20.738Z,102085.13
2023-02-06T15:50:59.631Z,102075.50
2023-02-06T15:53:33.532Z,102069.38
2023-02-06T15:56:01.413Z,102085.34
2023-02-06T15:58:31.359Z,102055.78
2023-02-06T16:00:59.245Z,102089.44
2023-02-06T16:03:27.848Z,102073.59
2023-02-06T16:05:56.455Z,102081.56
2023-02-06T16:08:26.264Z,102080.50
2023-02-06T16:10:54.849Z,102088.25
2023-02-06T16:13:26.019Z,102087.09
2023-02-06T16:16:23.940Z,102086.97
2023-02-06T16:18:53.428Z,102092.81
2023-02-06T16:21:26.881Z,102080.41
2023-02-06T16:24:03.327Z,102046.47
2023-02-06T16:26:31.740Z,102069.91
2023-02-06T16:29:00.946Z,102071.47
2023-02-06T16:31:31.445Z,102023.94
2023-02-06T16:34:03.121Z,102061.63
2023-02-06T16:36:31.844Z,102035.78
2023-02-06T16:39:04.079Z,102080.75
2023-02-06T16:41:35.447Z,102074.44
2023-02-06T16:44:05.295Z,102079.16
2023-02-06T16:46:34.538Z,102074.94
2023-02-06T16:49:02.550Z,102070.66
2023-02-06T16:51:31.064Z,102079.16
2023-02-06T16:53:58.949Z,102059.06
2023-02-06T16:56:26.786Z,102061.53
2023-02-06T16:58:54.775Z,102063.09
2023-02-06T17:01:25.155Z,102067.25
2023-02-06T17:03:54.522Z,102069.81
2023-02-06T17:06:24.310Z,102050.53
2023-02-06T17:08:54.020Z,102067.97
2023-02-06T17:11:21.929Z,102075.84
2023-02-06T17:13:49.944Z,102073.38
2023-02-06T17:16:21.059Z,102061.88
2023-02-06T17:18:49.026Z,102070.91
2023-02-06T17:21:19.104Z,102055.72
2023-02-06T17:23:47.264Z,102069.16
2023-02-06T17:26:16.719Z,102060.41
2023-02-06T17:28:44.611Z,102061.13
2023-02-06T17:33:59.820Z,102069.94
2023-02-06T17:36:32.316Z,102071.47
2023-02-06T17:39:00.567Z,102065.91
2023-02-06T17:41:28.554Z,102075.75
2023-02-06T17:43:56.290Z,101931.53
2023-02-06T17:46:24.315Z,102078.84
2023-02-06T17:48:52.215Z,102083.44
2023-02-06T17:51:19.982Z,102091.34
2023-02-06T17:53:50.307Z,102088.53
2023-02-06T17:56:19.285Z,102077.28
2023-02-06T17:58:47.054Z,102080.78
2023-02-06T18:01:15.825Z,102067.41
2023-02-06T18:03:44.382Z,102071.66
2023-02-06T18:06:12.750Z,102085.50
2023-02-06T18:08:40.811Z,102071.34
2023-02-06T18:11:11.511Z,102065.81
2023-02-06T18:13:39.587Z,102071.63
2023-02-06T18:16:08.395Z,102070.38
2023-02-06T18:18:37.187Z,102062.16
2023-02-06T18:21:05.011Z,102065.88
2023-02-06T18:23:32.850Z,102067.44
2023-02-06T18:26:02.156Z,102029.81
2023-02-06T18:28:31.335Z,102067.19
2023-02-06T18:31:01.744Z,102077.09
2023-02-06T18:33:29.665Z,102066.16
2023-02-06T18:35:57.458Z,102078.00
2023-02-06T18:38:25.651Z,102075.28
2023-02-06T18:40:53.391Z,102088.41
2023-02-06T18:43:20.161Z,102042.44
2023-02-06T18:45:49.369Z,102088.69
2023-02-06T18:48:17.110Z,102101.56
2023-02-06T18:50:44.873Z,102109.47
2023-02-06T18:53:12.730Z,102067.75
2023-02-06T18:55:40.464Z,102101.34
2023-02-06T18:58:08.315Z,102103.09
2023-02-06T19:00:37.798Z,102093.44
2023-02-06T19:03:07.087Z,102095.56
2023-02-06T19:05:35.968Z,102084.16
2023-02-06T19:08:03.759Z,102061.13
2023-02-06T19:10:31.822Z,102083.22
2023-02-06T19:12:59.535Z,102096.59
2023-02-06T19:15:27.541Z,102093.06
2023-02-06T19:17:55.282Z,102071.63
2023-02-06T19:20:24.418Z,102084.03
2023-02-06T19:22:53.591Z,102086.34
2023-02-06T19:25:21.603Z,102085.41
2023-02-06T19:27:49.360Z,102083.44
2023-02-06T19:30:17.404Z,102086.66
2023-02-06T19:32:48.063Z,102084.66
2023-02-06T19:35:17.185Z,102083.56
2023-02-06T19:37:46.978Z,101937.06
2023-02-06T19:40:15.398Z,102088.22
2023-02-06T19:42:44.208Z,102087.78
2023-02-06T19:45:11.911Z,102092.88
2023-02-06T19:47:42.018Z,102105.66
2023-02-06T19:50:14.320Z,102097.91
2023-02-06T19:52:42.345Z,102125.66
2023-02-06T19:55:11.801Z,102110.44
2023-02-06T19:57:39.797Z,102108.84
2023-02-06T20:00:08.836Z,102108.72
2023-02-06T20:02:36.592Z,102122.41
2023-02-06T20:05:04.499Z,102110.03
2023-02-06T20:07:32.388Z,102122.91
2023-02-06T20:10:01.280Z,102135.31
2023-02-06T20:12:42.286Z,101901.22
2023-02-06T20:15:10.488Z,101891.13
2023-02-06T20:17:38.176Z,102116.53
2023-02-06T20:20:08.590Z,102148.56
2023-02-06T20:22:48.374Z,101970.22
2023-02-06T20:25:20.890Z,102112.75
2023-02-06T20:27:50.096Z,102111.69
2023-02-06T20:30:22.237Z,102126.38
2023-02-06T20:32:50.171Z,102120.16
2023-02-06T20:35:18.221Z,102120.88
2023-02-06T20:37:46.007Z,102124.31
2023-02-06T20:40:13.923Z,102086.13
2023-02-06T20:42:44.412Z,102110.44
2023-02-06T20:45:16.648Z,102064.88
2023-02-06T20:47:44.315Z,102112.53
2023-02-06T20:50:22.564Z,102122.09
2023-02-06T20:52:52.025Z,102032.91
2023-02-06T20:55:23.934Z,102166.44
2023-02-06T20:57:51.609Z,102110.94
2023-02-06T21:00:21.941Z,102114.34
2023-02-06T21:02:51.433Z,102109.06
2023-02-06T21:05:20.749Z,102109.50
2023-02-06T21:07:48.562Z,102084.69
2023-02-06T21:10:16.530Z,102088.50
2023-02-06T21:12:44.333Z,102096.06
2023-02-06T21:15:12.169Z,102088.75
2023-02-06T21:17:41.379Z,102085.94
2023-02-06T21:20:10.308Z,102094.44
2023-02-06T21:22:38.154Z,102103.88
2023-02-06T21:25:06.481Z,102104.56
2023-02-06T21:27:34.159Z,102101.78
2023-02-06T21:30:02.012Z,102107.63
2023-02-06T21:32:30.835Z,102104.81
2023-02-06T21:34:59.945Z,102108.72
2023-02-06T21:37:27.948Z,102039.47
2023-02-06T21:39:55.656Z,102111.06
2023-02-06T21:42:26.213Z,102095.09
2023-02-06T21:44:54.124Z,102104.66
2023-02-06T21:47:21.820Z,102099.31
2023-02-06T21:49:50.711Z,102090.47
2023-02-06T21:52:19.815Z,102092.88
2023-02-06T21:54:47.563Z,102084.63
2023-02-06T21:57:15.385Z,102045.03
2023-02-06T21:59:43.689Z,102104.41
2023-02-06T22:02:11.775Z,102097.28
2023-02-06T22:04:39.564Z,102096.13
2023-02-06T22:07:09.256Z,102096.88
2023-02-06T22:09:38.540Z,102100.09
2023-02-06T22:12:07.367Z,102092.97
2023-02-06T22:14:35.395Z,102107.53
2023-02-06T22:17:03.121Z,102090.13
2023-02-06T22:19:31.385Z,102076.41
2023-02-06T22:21:59.086Z,102088.16
2023-02-06T22:24:27.244Z,102073.25
2023-02-06T22:26:56.378Z,102073.00
2023-02-06T22:29:24.554Z,102065.13
2023-02-06T22:31:52.558Z,102058.97
2023-02-06T22:34:21.202Z,102057.91
2023-02-06T22:36:51.019Z,102061.22
2023-02-06T22:39:18.927Z,102054.97
2023-02-06T22:41:46.931Z,102048.81
2023-02-06T22:44:17.145Z,102070.28
2023-02-06T22:46:45.618Z,102035.66
2023-02-06T22:49:13.454Z,102036.66
2023-02-06T22:51:41.615Z,102069.00
2023-02-06T22:54:10.591Z,102012.84
2023-02-06T22:56:38.894Z,102058.22
2023-02-06T22:59:07.720Z,102051.41
2023-02-06T23:01:38.144Z,102018.31
2023-02-06T23:04:06.798Z,102055.91
2023-02-06T23:06:35.237Z,102081.63
2023-02-06T23:09:03.681Z,102079.75
2023-02-06T23:11:32.451Z,102046.09
2023-02-06T23:14:01.494Z,102074.19
2023-02-06T23:16:29.897Z,102075.00
2023-02-06T23:18:59.175Z,102070.09
2023-02-06T23:21:27.999Z,102074.47
2023-02-06T23:23:56.256Z,102039.56
2023-02-06T23:26:24.179Z,101997.78
2023-02-06T23:28:52.390Z,102064.91
2023-02-06T23:34:03.430Z,102061.34
2023-02-06T23:36:31.311Z,102075.91
2023-02-06T23:38:58.978Z,102067.16
2023-02-06T23:41:28.997Z,102077.34
2023-02-06T23:43:57.858Z,102075.56
2023-02-06T23:46:25.845Z,102079.66
2023-02-06T23:48:53.637Z,102083.97
2023-02-06T23:51:23.116Z,102083.75
2023-02-06T23:53:50.786Z,102083.69
2023-02-06T23:56:21.604Z,102099.94
2023-02-06T23:58:49.307Z,102089.59
